Rifle, CO (81650)

5:44 AM MDT on September 02, 2015 (GMT -0600)
Cactus Valley, Greg and Nella | | Change Station
CLOSE
Current Station
Personal Weather Station
Location: Rifle, CO
Elevation: 5449 ft
Nearby Weather Stations

Elev 5449 ft 39.55 °N, 107.73 °W | Updated 13 minutes ago

Clear
Clear
49.9 °F
Feels Like 50 °F
N
0.0
Wind Variable Wind from NNW
Gusts 0.0 mph

Today
High -- | Low -- °F
--% Chance of Precip.
Yesterday
High -- | Low -- °F
Precip. -- in
6:40 AM 7:40 PM
Waning Gibbous, 81% visible
Pressure 30.04 in
Visibility 10.0 miles
Clouds Clear
Windchill 50 °F
Dew Point 48 °F
Humidity 92%
Rainfall 0.00 in
Snow Depth Not available.
UV 0 out of 12
Pollen 10.00 out of 12
Air Quality Not available.
Flu Activity Not available.
METAR KRIL 021053Z AUTO 09004KT 10SM CLR 11/09 A3023 RMK AO2 SLP172 T01110094
Pressure 30.04 in
Visibility 10.0 miles
Clouds Clear
Windchill 50 °F
Dew Point 48 °F
Humidity 92%
Rainfall 0.00 in
Snow Depth Not available.
UV 0 out of 12
Pollen 10.00 out of 12
Air Quality Not available.
Flu Activity Not available.
METAR KRIL 021053Z AUTO 09004KT 10SM CLR 11/09 A3023 RMK AO2 SLP172 T01110094

10-Day Weather Forecast

×

Almanac

Astronomy

Sep. 02, 2015 Rise Set
Actual Time
Civil Twilight
Nautical Twilight
Astronomical Twilight
Moon
Length of Visible Light
Length of Day
Tomorrow will be .
, % of the Moon is Illuminated

Today's Extremes

State Highs State Lows

Community

WunderPhotos

Upload Photos

1,851,736 photos uploaded!

WunderBlogs® & News

Nearby

Air Quality

  Air Quality AQ Index Pollutant
Not available.

Snow Depth

Station Depth Elevation

Earthquake Activity

City Distance Mag. Time & Date
Minimum magnitude displayed is 2.5.

Coastal Water Temperatures

Place Temperature

Stations

Nearby Weather Stations

Station Location Temp. Windchill Dew Point Humidity Wind Precip. Elev Updated Type